createdAt,value
2023-04-22T00:00:34.856Z,24.70
2023-04-22T00:01:34.894Z,24.73
2023-04-22T00:02:35.065Z,24.74
2023-04-22T00:03:35.326Z,24.74
2023-04-22T00:04:35.340Z,24.77
2023-04-22T00:05:35.170Z,24.78
2023-04-22T00:06:35.210Z,24.77
2023-04-22T00:07:35.268Z,24.86
2023-04-22T00:08:35.325Z,24.85
2023-04-22T00:09:35.428Z,24.91
2023-04-22T00:10:35.606Z,24.90
2023-04-22T00:11:35.481Z,24.93
2023-04-22T00:12:35.565Z,25.01
2023-04-22T00:13:35.612Z,25.01
2023-04-22T00:14:35.780Z,25.03
2023-04-22T00:15:35.763Z,25.08
2023-04-22T00:16:35.887Z,25.12
2023-04-22T00:17:35.906Z,25.11
2023-04-22T00:18:35.963Z,25.14
2023-04-22T00:19:36.131Z,25.09
2023-04-22T00:20:35.988Z,25.05
2023-04-22T00:21:36.060Z,25.06
2023-04-22T00:22:36.132Z,25.08
2023-04-22T00:23:36.147Z,25.02
2023-04-22T00:24:36.263Z,25.02
2023-04-22T00:25:36.262Z,25.01
2023-04-22T00:26:36.300Z,25.11
2023-04-22T00:27:36.375Z,24.98
2023-04-22T00:28:36.443Z,24.93
2023-04-22T00:29:36.709Z,24.95
2023-04-22T00:30:36.554Z,25.03
2023-04-22T00:31:36.606Z,25.07
2023-04-22T00:32:36.745Z,24.96
2023-04-22T00:33:36.693Z,24.88
2023-04-22T00:34:36.721Z,24.90
2023-04-22T00:35:36.943Z,24.87
2023-04-22T00:36:36.865Z,24.88
2023-04-22T00:37:36.906Z,24.92
2023-04-22T00:38:36.967Z,25.00
2023-04-22T00:39:37.074Z,25.06
2023-04-22T00:40:37.214Z,25.00
2023-04-22T00:41:37.143Z,25.04
2023-04-22T00:42:37.193Z,24.95
2023-04-22T00:43:37.255Z,24.98
2023-04-22T00:44:37.311Z,24.96
2023-04-22T00:45:37.378Z,24.94
2023-04-22T00:46:37.430Z,24.95
2023-04-22T00:47:37.483Z,25.05
2023-04-22T00:48:37.546Z,25.15
2023-04-22T00:49:37.854Z,25.19
2023-04-22T00:50:37.618Z,25.12
2023-04-22T00:51:37.685Z,25.13
2023-04-22T00:52:37.696Z,25.21
2023-04-22T00:53:37.814Z,25.27
2023-04-22T00:54:37.839Z,25.31
2023-04-22T00:55:37.900Z,25.28
2023-04-22T00:56:37.939Z,25.28
2023-04-22T00:57:38.019Z,25.28
2023-04-22T00:58:38.018Z,25.37
2023-04-22T00:59:38.372Z,25.35
2023-04-22T01:00:38.158Z,25.33
2023-04-22T01:01:38.143Z,25.39
2023-04-22T01:02:38.298Z,25.37
2023-04-22T01:03:38.374Z,25.32
2023-04-22T01:04:38.254Z,25.36
2023-04-22T01:05:38.312Z,25.28
2023-04-22T01:06:38.388Z,25.37
2023-04-22T01:07:38.450Z,25.35
2023-04-22T01:08:38.447Z,25.34
2023-04-22T01:09:38.610Z,25.49
2023-04-22T01:10:38.516Z,25.42
2023-04-22T01:11:38.519Z,25.39
2023-04-22T01:12:38.570Z,25.36
2023-04-22T01:13:38.566Z,25.35
2023-04-22T01:14:38.567Z,25.22
2023-04-22T01:15:38.651Z,25.23
2023-04-22T01:16:38.708Z,25.30
2023-04-22T01:17:38.795Z,25.25
2023-04-22T01:18:38.724Z,25.15
2023-04-22T01:19:39.057Z,25.11
2023-04-22T01:20:38.945Z,25.11
2023-04-22T01:21:38.903Z,25.03
2023-04-22T01:22:38.962Z,25.03
2023-04-22T01:23:38.966Z,25.10
2023-04-22T01:24:38.973Z,25.00
2023-04-22T01:25:39.022Z,25.05
2023-04-22T01:26:39.087Z,25.09
2023-04-22T01:27:39.201Z,25.09
2023-04-22T01:28:39.144Z,25.10
2023-04-22T01:29:39.374Z,25.24
2023-04-22T01:30:39.264Z,25.23
2023-04-22T01:31:39.357Z,25.24
2023-04-22T01:32:39.464Z,25.30
2023-04-22T01:33:39.276Z,25.34
2023-04-22T01:34:39.284Z,25.34
2023-04-22T01:35:39.323Z,25.33
2023-04-22T01:36:39.376Z,25.34
2023-04-22T01:37:39.438Z,25.35
2023-04-22T01:38:39.424Z,25.34
2023-04-22T01:39:39.609Z,25.27
2023-04-22T01:40:39.483Z,25.38
2023-04-22T01:41:39.579Z,25.31
2023-04-22T01:42:39.564Z,25.30
2023-04-22T01:43:39.566Z,25.25
2023-04-22T01:44:39.720Z,25.24
2023-04-22T01:45:39.722Z,25.18
2023-04-22T01:46:39.682Z,25.11
2023-04-22T01:47:39.837Z,25.14
2023-04-22T01:48:39.894Z,25.11
2023-04-22T01:49:40.156Z,25.07
2023-04-22T01:50:39.877Z,25.06
2023-04-22T01:51:39.981Z,25.03
2023-04-22T01:52:39.951Z,25.02
2023-04-22T01:53:39.956Z,25.03
2023-04-22T01:54:39.987Z,25.06
2023-04-22T01:55:40.051Z,25.16
2023-04-22T01:56:40.050Z,25.17
2023-04-22T01:57:40.099Z,25.17
2023-04-22T01:58:40.190Z,25.20
2023-04-22T01:59:40.530Z,25.32
2023-04-22T02:00:40.184Z,25.32
2023-04-22T02:01:40.214Z,25.39
2023-04-22T02:02:40.261Z,25.47
2023-04-22T02:03:40.209Z,25.63
2023-04-22T02:04:40.233Z,25.58
2023-04-22T02:05:40.244Z,25.57
2023-04-22T02:06:40.238Z,25.64
2023-04-22T02:07:40.219Z,25.67
2023-04-22T02:08:40.207Z,25.78
2023-04-22T02:09:40.457Z,25.78
2023-04-22T02:10:40.217Z,25.82
2023-04-22T02:11:40.489Z,25.83
2023-04-22T02:12:40.231Z,25.86
2023-04-22T02:13:40.233Z,25.89
2023-04-22T02:14:40.233Z,25.89
2023-04-22T02:15:40.302Z,25.93
2023-04-22T02:16:40.260Z,25.90
2023-04-22T02:17:40.270Z,25.83
2023-04-22T02:18:40.266Z,25.73
2023-04-22T02:19:40.482Z,25.66
2023-04-22T02:20:40.269Z,25.65
2023-04-22T02:21:40.276Z,25.66
2023-04-22T02:22:40.245Z,25.65
2023-04-22T02:23:40.316Z,25.69
2023-04-22T02:24:40.315Z,25.76
2023-04-22T02:25:40.280Z,25.62
2023-04-22T02:26:40.261Z,25.52
2023-04-22T02:27:40.260Z,25.51
2023-04-22T02:28:40.301Z,25.51
2023-04-22T02:29:40.552Z,25.58
2023-04-22T02:30:40.249Z,25.68
2023-04-22T02:31:40.462Z,25.59
2023-04-22T02:32:40.334Z,25.48
2023-04-22T02:33:40.255Z,25.44
2023-04-22T02:34:40.270Z,25.46
2023-04-22T02:35:40.285Z,25.52
2023-04-22T02:36:40.231Z,25.49
2023-04-22T02:37:40.292Z,25.62
2023-04-22T02:38:40.284Z,25.64
2023-04-22T02:39:40.674Z,25.63
2023-04-22T02:40:40.320Z,25.67
2023-04-22T02:41:40.313Z,25.73
2023-04-22T02:42:40.322Z,25.75
2023-04-22T02:43:40.336Z,25.73
2023-04-22T02:44:40.339Z,25.82
2023-04-22T02:45:40.357Z,25.90
2023-04-22T02:46:40.366Z,25.96
2023-04-22T02:47:40.394Z,25.99
2023-04-22T02:48:40.363Z,25.83
2023-04-22T02:49:40.542Z,25.92
2023-04-22T02:50:40.372Z,25.98
2023-04-22T02:51:40.378Z,25.93
2023-04-22T02:52:40.396Z,25.85
2023-04-22T02:53:40.393Z,25.74
2023-04-22T02:54:40.397Z,25.75
2023-04-22T02:55:40.432Z,25.68
2023-04-22T02:56:40.419Z,25.70
2023-04-22T02:57:40.395Z,25.60
2023-04-22T02:58:40.432Z,25.69
2023-04-22T02:59:40.700Z,25.67
2023-04-22T03:00:40.471Z,25.70
2023-04-22T03:01:40.447Z,25.71
2023-04-22T03:02:40.634Z,25.84
2023-04-22T03:03:40.683Z,25.82
2023-04-22T03:04:40.410Z,25.85
2023-04-22T03:05:40.439Z,25.88
2023-04-22T03:06:40.444Z,25.88
2023-04-22T03:07:40.437Z,25.86
2023-04-22T03:08:40.538Z,25.87
2023-04-22T03:09:40.759Z,25.86
2023-04-22T03:10:40.475Z,25.93
2023-04-22T03:11:40.485Z,25.98
2023-04-22T03:12:40.498Z,25.99
2023-04-22T03:13:40.502Z,25.99
2023-04-22T03:14:40.503Z,26.01
2023-04-22T03:15:40.498Z,26.07
2023-04-22T03:16:40.605Z,26.03
2023-04-22T03:17:40.522Z,26.02
2023-04-22T03:18:40.565Z,26.03
2023-04-22T03:19:40.887Z,26.14
2023-04-22T03:20:40.554Z,26.17
2023-04-22T03:21:40.607Z,26.19
2023-04-22T03:22:40.600Z,26.23
2023-04-22T03:23:40.617Z,26.25
2023-04-22T03:24:40.617Z,26.47
2023-04-22T03:25:40.626Z,26.44
2023-04-22T03:26:40.779Z,26.36
2023-04-22T03:27:40.699Z,26.33
2023-04-22T03:28:40.702Z,26.39
2023-04-22T03:29:41.170Z,26.35
2023-04-22T03:30:40.764Z,26.48
2023-04-22T03:31:40.861Z,26.41
2023-04-22T03:32:40.784Z,26.41
2023-04-22T03:33:40.840Z,26.41
2023-04-22T03:34:41.000Z,26.42
2023-04-22T03:35:40.901Z,26.41
2023-04-22T03:36:40.936Z,26.41
2023-04-22T03:37:40.962Z,26.50
2023-04-22T03:38:41.132Z,26.52
2023-04-22T03:39:41.377Z,26.54
2023-04-22T03:40:41.025Z,26.53
2023-04-22T03:41:41.102Z,26.59
2023-04-22T03:42:41.116Z,26.58
2023-04-22T03:43:41.155Z,26.57
2023-04-22T03:44:41.161Z,26.66
2023-04-22T03:45:41.263Z,26.62
2023-04-22T03:46:41.253Z,26.65
2023-04-22T03:47:41.351Z,26.66
2023-04-22T03:48:41.325Z,26.73
2023-04-22T03:49:41.689Z,26.74
2023-04-22T03:50:41.549Z,26.66
2023-04-22T03:51:41.448Z,26.70
2023-04-22T03:52:41.529Z,26.69
2023-04-22T03:53:41.524Z,26.76
2023-04-22T03:54:41.572Z,26.67
2023-04-22T03:55:41.597Z,26.67
2023-04-22T03:56:41.661Z,26.59
2023-04-22T03:57:41.666Z,26.66
2023-04-22T03:58:41.727Z,26.65
2023-04-22T03:59:42.033Z,26.66
2023-04-22T04:00:41.784Z,26.61
2023-04-22T04:01:41.851Z,26.59
2023-04-22T04:02:42.059Z,26.66
2023-04-22T04:03:42.145Z,26.63
2023-04-22T04:04:42.171Z,26.63
2023-04-22T04:05:42.069Z,26.64
2023-04-22T04:06:42.173Z,26.60
2023-04-22T04:07:42.026Z,26.56
2023-04-22T04:08:42.097Z,26.63
2023-04-22T04:09:42.395Z,26.60
2023-04-22T04:10:42.166Z,26.69
2023-04-22T04:11:42.208Z,26.61
2023-04-22T04:12:42.277Z,26.57
2023-04-22T04:13:42.339Z,26.55
2023-04-22T04:14:42.318Z,26.54
2023-04-22T04:15:42.457Z,26.53
2023-04-22T04:16:42.496Z,26.58
2023-04-22T04:17:42.505Z,26.54
2023-04-22T04:18:42.585Z,26.65
2023-04-22T04:19:42.784Z,26.65
2023-04-22T04:20:42.634Z,26.66
2023-04-22T04:21:42.652Z,26.71
2023-04-22T04:22:42.700Z,26.72
2023-04-22T04:23:42.798Z,26.79
2023-04-22T04:24:42.838Z,26.79
2023-04-22T04:25:42.881Z,26.82
2023-04-22T04:26:42.940Z,26.77
2023-04-22T04:27:42.985Z,26.79
2023-04-22T04:28:42.987Z,26.86
2023-04-22T04:29:43.187Z,26.84
2023-04-22T04:30:43.117Z,26.82
2023-04-22T04:31:43.213Z,26.90
2023-04-22T04:32:43.267Z,26.82
2023-04-22T04:33:43.228Z,26.79
2023-04-22T04:34:43.324Z,26.86
2023-04-22T04:35:43.390Z,26.82
2023-04-22T04:36:43.370Z,26.81
2023-04-22T04:37:43.421Z,26.88
2023-04-22T04:38:43.482Z,26.78
2023-04-22T04:39:43.541Z,26.80
2023-04-22T04:40:43.615Z,26.80
2023-04-22T04:41:43.599Z,26.77
2023-04-22T04:42:43.609Z,26.85
2023-04-22T04:43:43.711Z,26.85
2023-04-22T04:44:43.696Z,26.85
2023-04-22T04:45:45.502Z,26.84
2023-04-22T04:46:43.794Z,26.77
2023-04-22T04:47:43.769Z,26.68
2023-04-22T04:48:43.720Z,26.53
2023-04-22T04:49:43.706Z,26.25
2023-04-22T04:50:43.707Z,26.08
2023-04-22T04:51:43.679Z,25.88
2023-04-22T04:52:43.730Z,25.70
2023-04-22T04:53:43.695Z,25.47
2023-04-22T04:54:43.644Z,25.33
2023-04-22T04:55:43.672Z,25.28
2023-04-22T04:56:43.649Z,25.30
2023-04-22T04:57:43.661Z,25.24
2023-04-22T04:58:43.618Z,25.17
2023-04-22T04:59:43.620Z,25.14
2023-04-22T05:00:43.686Z,25.20
2023-04-22T05:01:43.666Z,25.34
2023-04-22T05:02:43.713Z,25.39
2023-04-22T05:03:43.756Z,25.39
2023-04-22T05:04:43.770Z,25.46
2023-04-22T05:05:43.595Z,25.51
2023-04-22T05:06:43.594Z,25.56
2023-04-22T05:07:43.596Z,25.57
2023-04-22T05:08:43.536Z,25.61
2023-04-22T05:09:43.570Z,25.64
2023-04-22T05:10:43.549Z,25.68
2023-04-22T05:11:43.560Z,25.69
2023-04-22T05:12:43.512Z,25.70
2023-04-22T05:13:43.513Z,25.71
2023-04-22T05:14:43.517Z,25.70
2023-04-22T05:15:43.523Z,25.67
2023-04-22T05:16:43.584Z,25.65
2023-04-22T05:17:43.587Z,25.58
2023-04-22T05:18:43.494Z,25.52
2023-04-22T05:19:43.478Z,25.46
2023-04-22T05:20:43.475Z,25.47
2023-04-22T05:21:43.442Z,25.43
2023-04-22T05:22:43.434Z,25.30
2023-04-22T05:23:43.455Z,25.22
2023-04-22T05:24:43.434Z,25.17
2023-04-22T05:25:43.448Z,25.00
2023-04-22T05:26:43.451Z,24.82
2023-04-22T05:27:43.456Z,24.78
2023-04-22T05:28:43.447Z,24.83
2023-04-22T05:29:43.563Z,24.99
2023-04-22T05:30:43.388Z,24.97
2023-04-22T05:31:43.456Z,24.94
2023-04-22T05:32:43.462Z,24.91
2023-04-22T05:33:43.401Z,24.89
2023-04-22T05:34:43.353Z,24.87
2023-04-22T05:35:43.399Z,24.86
2023-04-22T05:36:43.361Z,24.86
2023-04-22T05:37:43.335Z,24.86
2023-04-22T05:38:43.361Z,24.90
2023-04-22T05:39:43.323Z,24.90
2023-04-22T05:40:43.280Z,24.92
2023-04-22T05:41:46.164Z,24.93
2023-04-22T05:42:43.292Z,24.91
2023-04-22T05:43:43.292Z,24.92
2023-04-22T05:44:43.278Z,24.93
2023-04-22T05:45:43.354Z,24.93
2023-04-22T05:46:43.302Z,24.93
2023-04-22T05:47:43.343Z,24.97
2023-04-22T05:48:43.271Z,24.99
2023-04-22T05:49:43.242Z,24.96
2023-04-22T05:50:43.288Z,24.96
2023-04-22T05:51:43.227Z,24.97
2023-04-22T05:52:43.267Z,24.94
2023-04-22T05:53:43.228Z,24.98
2023-04-22T05:54:43.196Z,24.93
2023-04-22T05:55:43.285Z,24.97
2023-04-22T05:56:43.230Z,24.92
2023-04-22T05:57:43.195Z,24.92
2023-04-22T05:58:43.156Z,24.92
2023-04-22T05:59:43.432Z,24.95
2023-04-22T06:00:43.198Z,24.97
2023-04-22T06:01:43.154Z,24.98
2023-04-22T06:02:43.321Z,24.97
2023-04-22T06:03:43.328Z,24.98
2023-04-22T06:04:43.536Z,24.97
2023-04-22T06:05:43.234Z,25.00
2023-04-22T06:06:43.108Z,25.00
2023-04-22T06:07:43.112Z,24.99
2023-04-22T06:08:43.119Z,24.96
2023-04-22T06:09:43.258Z,24.98
2023-04-22T06:10:43.135Z,25.02
2023-04-22T06:11:43.078Z,25.01
2023-04-22T06:12:43.091Z,25.04
2023-04-22T06:13:43.060Z,25.04
2023-04-22T06:14:43.113Z,25.12
2023-04-22T06:15:43.105Z,25.13
2023-04-22T06:16:43.124Z,25.07
2023-04-22T06:17:43.066Z,25.11
2023-04-22T06:18:43.091Z,25.01
2023-04-22T06:19:43.126Z,25.04
2023-04-22T06:20:43.107Z,25.07
2023-04-22T06:21:43.076Z,25.04
2023-04-22T06:22:43.055Z,25.13
2023-04-22T06:23:43.052Z,25.07
2023-04-22T06:24:43.026Z,25.00
2023-04-22T06:25:43.011Z,25.03
2023-04-22T06:26:43.042Z,25.03
2023-04-22T06:27:43.021Z,25.04
2023-04-22T06:28:42.959Z,25.02
2023-04-22T06:29:42.973Z,25.10
2023-04-22T06:30:43.013Z,25.12
2023-04-22T06:31:43.062Z,25.16
2023-04-22T06:32:42.963Z,25.17
2023-04-22T06:33:42.973Z,25.20
2023-04-22T06:34:43.014Z,25.26
2023-04-22T06:35:43.123Z,25.26
2023-04-22T06:36:43.106Z,25.22
2023-04-22T06:37:43.120Z,25.28
2023-04-22T06:38:43.221Z,25.28
2023-04-22T06:39:43.425Z,25.25
2023-04-22T06:40:43.285Z,25.25
2023-04-22T06:41:43.372Z,25.27
2023-04-22T06:42:43.404Z,25.20
2023-04-22T06:43:43.460Z,25.23
2023-04-22T06:44:43.518Z,25.15
2023-04-22T06:45:43.569Z,25.19
2023-04-22T06:46:43.622Z,25.15
2023-04-22T06:47:43.674Z,25.16
2023-04-22T06:48:43.681Z,25.11
2023-04-22T06:49:43.751Z,25.11
2023-04-22T06:50:43.706Z,25.09
2023-04-22T06:51:43.763Z,25.06
2023-04-22T06:52:43.772Z,25.04
2023-04-22T06:53:43.812Z,24.98
2023-04-22T06:54:43.890Z,24.98
2023-04-22T06:55:43.945Z,24.97
2023-04-22T06:56:44.000Z,25.02
2023-04-22T06:57:43.984Z,24.91
2023-04-22T06:58:43.988Z,24.93
2023-04-22T06:59:46.716Z,24.89
2023-04-22T07:00:44.032Z,24.89
2023-04-22T07:01:44.082Z,24.89
2023-04-22T07:02:44.165Z,24.89
2023-04-22T07:03:44.123Z,24.91
2023-04-22T07:04:44.253Z,24.91
2023-04-22T07:05:44.141Z,24.91
2023-04-22T07:06:43.974Z,24.88
2023-04-22T07:07:43.970Z,24.89
2023-04-22T07:08:43.988Z,24.86
2023-04-22T07:09:43.946Z,24.90
2023-04-22T07:10:43.941Z,24.89
2023-04-22T07:11:43.965Z,24.87
2023-04-22T07:12:43.974Z,24.89
2023-04-22T07:13:43.966Z,24.87
2023-04-22T07:14:43.878Z,24.84
2023-04-22T07:15:43.926Z,24.82
2023-04-22T07:16:43.914Z,24.85
2023-04-22T07:17:43.934Z,24.85
2023-04-22T07:18:43.906Z,24.86
2023-04-22T07:19:43.841Z,24.87
2023-04-22T07:20:43.934Z,24.80
2023-04-22T07:21:43.925Z,24.80
2023-04-22T07:22:43.872Z,24.79
2023-04-22T07:23:43.872Z,24.83
2023-04-22T07:24:43.840Z,24.72
2023-04-22T07:25:43.852Z,24.71
2023-04-22T07:26:43.860Z,24.58
2023-04-22T07:27:43.800Z,24.61
2023-04-22T07:28:43.871Z,24.53
2023-04-22T07:29:43.828Z,24.54
2023-04-22T07:30:43.828Z,24.49
2023-04-22T07:31:43.779Z,24.53
2023-04-22T07:32:43.829Z,24.49
2023-04-22T07:33:43.794Z,24.49
2023-04-22T07:34:43.837Z,24.46
2023-04-22T07:35:43.807Z,24.50
2023-04-22T07:36:43.828Z,24.43
2023-04-22T07:37:43.768Z,24.38
2023-04-22T07:38:43.778Z,24.45
2023-04-22T07:39:43.750Z,24.29
2023-04-22T07:40:43.783Z,24.35
2023-04-22T07:41:43.701Z,24.35
2023-04-22T07:42:43.743Z,24.30
2023-04-22T07:43:43.751Z,24.35
2023-04-22T07:44:43.731Z,24.35
2023-04-22T07:45:43.754Z,24.37
2023-04-22T07:46:43.743Z,24.36
2023-04-22T07:47:43.739Z,24.32
2023-04-22T07:48:43.693Z,24.26
2023-04-22T07:49:43.712Z,24.22
2023-04-22T07:50:43.651Z,24.26
2023-04-22T07:51:43.665Z,24.28
2023-04-22T07:52:43.666Z,24.09
2023-04-22T07:53:43.627Z,24.18
2023-04-22T07:54:43.686Z,24.19
2023-04-22T07:55:43.701Z,24.20
2023-04-22T07:56:43.622Z,24.16
2023-04-22T07:57:43.633Z,24.13
2023-04-22T07:58:43.583Z,24.13
2023-04-22T07:59:43.619Z,24.11
2023-04-22T08:00:43.656Z,24.10
2023-04-22T08:01:43.571Z,24.12
2023-04-22T08:02:43.744Z,24.15
2023-04-22T08:03:43.799Z,24.15
2023-04-22T08:04:43.665Z,24.11
2023-04-22T08:05:43.552Z,24.12
2023-04-22T08:06:43.563Z,24.12
2023-04-22T08:07:43.575Z,24.04
2023-04-22T08:08:43.542Z,24.10
2023-04-22T08:09:43.534Z,24.03
2023-04-22T08:10:43.535Z,23.95
2023-04-22T08:11:43.574Z,23.97
2023-04-22T08:12:43.499Z,23.86
2023-04-22T08:13:43.524Z,23.99
2023-04-22T08:14:43.471Z,24.01
2023-04-22T08:15:43.561Z,23.95
2023-04-22T08:16:43.493Z,24.01
2023-04-22T08:17:43.566Z,23.95
2023-04-22T08:18:43.466Z,23.95
2023-04-22T08:19:43.524Z,23.89
2023-04-22T08:20:43.448Z,23.89
2023-04-22T08:21:43.462Z,23.96
2023-04-22T08:22:43.433Z,23.95
2023-04-22T08:23:43.430Z,23.86
2023-04-22T08:24:43.441Z,23.88
2023-04-22T08:25:43.498Z,23.85
2023-04-22T08:26:43.439Z,23.73
2023-04-22T08:27:43.508Z,23.73
2023-04-22T08:28:43.569Z,23.77
2023-04-22T08:29:43.869Z,23.70
2023-04-22T08:30:43.596Z,23.72
2023-04-22T08:31:43.731Z,23.70
2023-04-22T08:32:43.681Z,23.68
2023-04-22T08:33:43.707Z,23.67
2023-04-22T08:34:44.029Z,23.59
2023-04-22T08:35:43.724Z,23.60
2023-04-22T08:36:43.717Z,23.60
2023-04-22T08:37:43.721Z,23.54
2023-04-22T08:38:43.733Z,23.52
2023-04-22T08:39:43.742Z,23.53
2023-04-22T08:40:43.747Z,23.52
2023-04-22T08:41:43.755Z,23.46
2023-04-22T08:42:43.763Z,23.44
2023-04-22T08:43:43.758Z,23.42
2023-04-22T08:44:43.769Z,23.46
2023-04-22T08:45:43.782Z,23.30
2023-04-22T08:46:43.830Z,23.31
2023-04-22T08:47:43.891Z,23.34
2023-04-22T08:48:43.743Z,23.30
2023-04-22T08:49:43.820Z,23.33
2023-04-22T08:50:43.892Z,23.34
2023-04-22T08:51:43.818Z,23.25
2023-04-22T08:52:43.819Z,23.31
2023-04-22T08:53:43.788Z,23.27
2023-04-22T08:54:43.812Z,23.27
2023-04-22T08:55:43.803Z,23.24
2023-04-22T08:56:43.870Z,23.23
2023-04-22T08:57:43.866Z,23.23
2023-04-22T08:58:43.820Z,23.21
2023-04-22T08:59:43.900Z,23.21
2023-04-22T09:00:43.886Z,23.17
2023-04-22T09:01:43.939Z,23.19
2023-04-22T09:02:43.968Z,23.17
2023-04-22T09:03:43.984Z,23.17
2023-04-22T09:04:43.911Z,23.20
2023-04-22T09:05:43.930Z,23.16
2023-04-22T09:06:43.987Z,23.16
2023-04-22T09:07:44.013Z,23.17
2023-04-22T09:08:44.037Z,23.19
2023-04-22T09:09:44.097Z,23.20
2023-04-22T09:10:44.151Z,23.14
2023-04-22T09:11:44.183Z,23.19
2023-04-22T09:12:44.222Z,23.11
2023-04-22T09:13:44.492Z,23.13
2023-04-22T09:14:44.288Z,23.16
2023-04-22T09:15:44.246Z,23.22
2023-04-22T09:16:44.383Z,23.13
2023-04-22T09:17:44.378Z,23.16
2023-04-22T09:18:44.410Z,23.16
2023-04-22T09:19:44.484Z,23.15
2023-04-22T09:20:44.535Z,23.15
2023-04-22T09:21:45.171Z,23.16
2023-04-22T09:22:44.628Z,23.16
2023-04-22T09:23:44.752Z,23.18
2023-04-22T09:24:44.765Z,23.14
2023-04-22T09:25:44.768Z,23.12
2023-04-22T09:26:44.865Z,23.14
2023-04-22T09:27:44.872Z,23.10
2023-04-22T09:28:44.959Z,23.13
2023-04-22T09:29:45.000Z,23.07
2023-04-22T09:30:45.072Z,23.19
2023-04-22T09:31:45.134Z,23.11
2023-04-22T09:32:45.092Z,23.11
2023-04-22T09:33:45.160Z,23.19
2023-04-22T09:34:45.358Z,23.18
2023-04-22T09:35:45.283Z,23.13
2023-04-22T09:36:45.352Z,23.10
2023-04-22T09:37:49.577Z,23.16
2023-04-22T09:38:45.372Z,23.13
2023-04-22T09:39:45.373Z,23.17
2023-04-22T09:40:45.382Z,23.13
2023-04-22T09:41:45.334Z,23.10
2023-04-22T09:42:45.399Z,23.13
2023-04-22T09:43:45.412Z,23.17
2023-04-22T09:44:45.338Z,23.13
2023-04-22T09:45:45.392Z,23.17
2023-04-22T09:46:45.360Z,23.09
2023-04-22T09:47:45.334Z,23.15
2023-04-22T09:48:45.334Z,23.19
2023-04-22T09:49:45.290Z,23.10
2023-04-22T09:50:45.430Z,23.15
2023-04-22T09:51:45.275Z,23.13
2023-04-22T09:52:45.321Z,23.21
2023-04-22T09:53:45.261Z,23.13
2023-04-22T09:54:45.281Z,23.11
2023-04-22T09:55:45.272Z,23.10
2023-04-22T09:56:45.289Z,23.07
2023-04-22T09:57:45.324Z,23.05
2023-04-22T09:58:45.516Z,23.05
2023-04-22T09:59:45.404Z,23.10
2023-04-22T10:00:45.484Z,23.09
2023-04-22T10:01:45.534Z,23.10
2023-04-22T10:02:45.644Z,23.06
2023-04-22T10:03:45.664Z,23.06
2023-04-22T10:04:45.658Z,23.15
2023-04-22T10:05:45.702Z,23.07
2023-04-22T10:06:45.777Z,23.10
2023-04-22T10:07:45.843Z,23.13
2023-04-22T10:08:45.863Z,23.12
2023-04-22T10:09:45.914Z,23.21
2023-04-22T10:10:45.996Z,23.15
2023-04-22T10:11:46.054Z,23.12
2023-04-22T10:12:46.106Z,23.12
2023-04-22T10:13:46.185Z,23.15
2023-04-22T10:14:46.227Z,23.10
2023-04-22T10:15:46.287Z,23.06
2023-04-22T10:16:46.382Z,23.12
2023-04-22T10:17:46.508Z,23.12
2023-04-22T10:18:46.458Z,23.07
2023-04-22T10:19:46.563Z,23.19
2023-04-22T10:20:46.577Z,23.12
2023-04-22T10:21:46.746Z,23.19
2023-04-22T10:22:46.723Z,23.18
2023-04-22T10:23:46.801Z,23.06
2023-04-22T10:24:46.813Z,23.06
2023-04-22T10:25:46.941Z,23.10
2023-04-22T10:26:46.984Z,23.06
2023-04-22T10:27:47.103Z,23.18
2023-04-22T10:28:47.103Z,23.13
2023-04-22T10:29:47.152Z,23.18
2023-04-22T10:30:47.192Z,23.10
2023-04-22T10:31:47.247Z,23.21
2023-04-22T10:32:47.427Z,23.19
2023-04-22T10:33:47.380Z,23.18
2023-04-22T10:34:47.447Z,23.18
2023-04-22T10:35:47.498Z,23.22
2023-04-22T10:36:47.560Z,23.27
2023-04-22T10:37:47.663Z,23.31
2023-04-22T10:38:47.650Z,23.28
2023-04-22T10:39:47.749Z,23.30
2023-04-22T10:40:47.936Z,23.33
2023-04-22T10:41:47.849Z,23.31
2023-04-22T10:42:47.864Z,23.33
2023-04-22T10:43:47.954Z,23.36
2023-04-22T10:44:48.019Z,23.36
2023-04-22T10:45:48.228Z,23.33
2023-04-22T10:46:48.236Z,23.36
2023-04-22T10:47:48.264Z,23.38
2023-04-22T10:48:48.292Z,23.27
2023-04-22T10:49:48.366Z,23.40
2023-04-22T10:50:48.426Z,23.41
2023-04-22T10:51:48.433Z,23.41
2023-04-22T10:52:48.490Z,23.43
2023-04-22T10:53:48.536Z,23.41
2023-04-22T10:54:48.590Z,23.37
2023-04-22T10:55:48.660Z,23.34
2023-04-22T10:56:57.400Z,23.25
2023-04-22T10:57:49.688Z,23.34
2023-04-22T10:58:48.723Z,23.34
2023-04-22T10:59:50.388Z,23.30
2023-04-22T11:00:53.564Z,23.34
2023-04-22T11:01:49.788Z,23.41
2023-04-22T11:02:48.751Z,23.24
2023-04-22T11:03:48.814Z,23.35
2023-04-22T11:04:48.679Z,23.24
2023-04-22T11:05:48.707Z,23.34
2023-04-22T11:06:48.688Z,23.36
2023-04-22T11:07:48.655Z,23.28
2023-04-22T11:08:48.642Z,23.33
2023-04-22T11:09:48.857Z,23.36
2023-04-22T11:10:48.707Z,23.44
2023-04-22T11:11:48.780Z,23.28
2023-04-22T11:12:48.873Z,23.43
2023-04-22T11:13:48.888Z,23.43
2023-04-22T11:14:48.997Z,23.41
2023-04-22T11:15:49.058Z,23.37
2023-04-22T11:16:49.205Z,23.31
2023-04-22T11:17:49.255Z,23.42
2023-04-22T11:18:49.215Z,23.46
2023-04-22T11:19:49.363Z,23.33
2023-04-22T11:20:49.374Z,23.22
2023-04-22T11:21:51.193Z,23.25
2023-04-22T11:22:49.386Z,23.37
2023-04-22T11:23:49.494Z,23.28
2023-04-22T11:24:49.576Z,23.28
2023-04-22T11:25:49.600Z,23.28
2023-04-22T11:26:49.616Z,23.33
2023-04-22T11:27:49.719Z,23.37
2023-04-22T11:28:49.761Z,23.37
2023-04-22T11:29:49.827Z,23.24
2023-04-22T11:30:49.930Z,23.25
2023-04-22T11:31:49.900Z,23.21
2023-04-22T11:32:50.017Z,23.22
2023-04-22T11:33:50.449Z,23.33
2023-04-22T11:34:50.084Z,23.27
2023-04-22T11:35:50.159Z,23.35
2023-04-22T11:36:50.210Z,23.28
2023-04-22T11:37:50.273Z,23.24
2023-04-22T11:38:50.306Z,23.36
2023-04-22T11:40:13.136Z,23.24
2023-04-22T11:40:51.352Z,23.24
2023-04-22T11:41:50.348Z,23.24
2023-04-22T11:42:50.344Z,23.28
2023-04-22T11:43:50.358Z,23.30
2023-04-22T11:44:50.328Z,23.36
2023-04-22T11:45:50.365Z,23.30
2023-04-22T11:46:50.276Z,23.35
2023-04-22T11:47:50.356Z,23.27
2023-04-22T11:48:50.416Z,23.27
2023-04-22T11:49:50.389Z,23.28
2023-04-22T11:50:50.422Z,23.25
2023-04-22T11:51:50.542Z,23.18
2023-04-22T11:52:50.593Z,23.22
2023-04-22T11:53:50.591Z,23.27
2023-04-22T11:54:50.628Z,23.24
2023-04-22T11:55:50.700Z,23.29
2023-04-22T11:56:50.749Z,23.37
2023-04-22T11:57:50.886Z,23.43
2023-04-22T11:58:50.940Z,23.40
2023-04-22T11:59:50.933Z,23.32
2023-04-22T12:00:50.965Z,23.30
2023-04-22T12:01:51.078Z,23.46
2023-04-22T12:02:51.091Z,23.40
2023-04-22T12:03:51.194Z,23.27
2023-04-22T12:04:51.189Z,23.25
2023-04-22T12:05:51.283Z,23.25
2023-04-22T12:06:51.293Z,23.18
2023-04-22T12:07:51.437Z,23.18
2023-04-22T12:08:51.428Z,23.16
2023-04-22T12:09:51.517Z,23.38
2023-04-22T12:10:51.517Z,23.43
2023-04-22T12:11:51.643Z,23.16
2023-04-22T12:12:51.592Z,23.16
2023-04-22T12:13:51.680Z,23.10
2023-04-22T12:14:51.749Z,23.18
2023-04-22T12:15:51.795Z,23.18
2023-04-22T12:16:51.893Z,23.06
2023-04-22T12:17:51.948Z,23.14
2023-04-22T12:18:52.011Z,23.18
2023-04-22T12:19:51.986Z,23.27
2023-04-22T12:20:52.062Z,23.32
2023-04-22T12:21:52.109Z,23.35
2023-04-22T12:22:52.251Z,23.39
2023-04-22T12:23:52.219Z,23.39
2023-04-22T12:24:52.263Z,23.30
2023-04-22T12:25:52.293Z,23.10
2023-04-22T12:26:52.433Z,23.17
2023-04-22T12:27:52.405Z,23.29
2023-04-22T12:28:52.498Z,23.23
2023-04-22T12:29:52.544Z,23.14
2023-04-22T12:30:52.755Z,23.17
2023-04-22T12:31:52.648Z,23.07
2023-04-22T12:32:52.692Z,23.15
2023-04-22T12:33:52.884Z,23.32
2023-04-22T12:34:52.792Z,23.27
2023-04-22T12:35:52.832Z,23.17
2023-04-22T12:36:52.893Z,23.21
2023-04-22T12:37:52.939Z,23.23
2023-04-22T12:38:52.977Z,23.16
2023-04-22T12:39:53.123Z,23.27
2023-04-22T12:40:53.098Z,23.28
2023-04-22T12:41:53.129Z,23.21
2023-04-22T12:42:53.179Z,23.25
2023-04-22T12:43:53.342Z,23.19
2023-04-22T12:44:53.263Z,23.14
2023-04-22T12:45:53.302Z,23.05
2023-04-22T12:46:53.646Z,23.02
2023-04-22T12:47:53.507Z,22.99
2023-04-22T12:48:53.523Z,23.17
2023-04-22T12:49:53.533Z,23.05
2023-04-22T12:50:53.553Z,22.93
2023-04-22T12:51:53.795Z,22.92
2023-04-22T12:52:53.666Z,23.17